Time;durP1;ratioP1;P1;durP2;ratioP2;P2;SDS_P1;SDS_P2;PMS_P1;PMS_P2;Temp;Humidity;BMP_temperature;BMP_pressure;BME280_temperature;BME280_humidity;BME280_pressure;Samples;Min_cycle;Max_cycle;Signal;HPM_P1;HPM_P2
2023/11/25 00:01:19;;;;;;;15.85;3.50;;;;;;;13.38;57.85;92341.06;4197140;28;20049;-68
2023/11/25 00:03:21;;;;;;;13.82;3.35;;;;;;;13.40;58.07;92333.72;4200436;28;20056;-70
2023/11/25 00:05:24;;;;;;;6.95;2.70;;;;;;;13.38;57.89;92327.91;4197720;28;20052;-68
2023/11/25 00:07:26;;;;;;;10.70;2.90;;;;;;;13.39;58.17;92326.88;4193188;28;20048;-69
2023/11/25 00:09:29;;;;;;;6.90;2.40;;;;;;;13.38;58.04;92325.28;4196338;28;20139;-69
2023/11/25 00:11:31;;;;;;;7.28;2.72;;;;;;;13.38;57.64;92324.47;4178052;28;20320;-68
2023/11/25 00:13:32;;;;;;;8.93;2.53;;;;;;;13.42;57.78;92331.66;4196493;28;20048;-68
2023/11/25 00:15:34;;;;;;;14.80;3.10;;;;;;;13.44;57.76;92319.09;4177210;28;20057;-67
2023/11/25 00:17:36;;;;;;;9.95;2.67;;;;;;;13.46;58.25;92305.69;4194805;28;20044;-68
2023/11/25 00:19:38;;;;;;;11.82;2.90;;;;;;;13.42;58.28;92313.25;4193112;28;20049;-67
2023/11/25 00:21:40;;;;;;;9.52;2.65;;;;;;;13.37;58.74;92304.47;4188644;28;20048;-66
2023/11/25 00:23:42;;;;;;;10.70;2.90;;;;;;;13.39;58.59;92305.03;4190273;28;20562;-67
2023/11/25 00:25:44;;;;;;;10.45;2.83;;;;;;;13.38;58.18;92298.97;4185645;28;20408;-68
2023/11/25 00:27:46;;;;;;;11.20;3.22;;;;;;;13.41;58.78;92298.50;4178525;28;20045;-68
2023/11/25 00:29:49;;;;;;;5.43;2.50;;;;;;;13.45;58.64;92301.47;4189515;28;20049;-67
2023/11/25 00:31:54;;;;;;;9.57;2.67;;;;;;;13.41;58.66;92301.13;4181795;28;20132;-68
2023/11/25 00:33:58;;;;;;;14.23;2.72;;;;;;;13.49;58.65;92287.63;4195827;28;20648;-67
2023/11/25 00:36:00;;;;;;;19.55;2.83;;;;;;;13.39;58.26;92297.94;4192165;28;20053;-68
2023/11/25 00:38:02;;;;;;;7.80;2.53;;;;;;;13.38;58.60;92288.47;4190481;28;20530;-66
2023/11/25 00:40:04;;;;;;;9.40;2.65;;;;;;;13.43;58.68;92282.50;4185579;28;20053;-69
2023/11/25 00:42:06;;;;;;;10.85;2.50;;;;;;;13.40;58.29;92270.63;4181265;28;20049;-68
2023/11/25 00:44:08;;;;;;;8.93;2.28;;;;;;;13.36;58.69;92279.19;4188383;28;20052;-67
2023/11/25 00:46:10;;;;;;;6.90;2.13;;;;;;;13.38;59.22;92283.22;4196963;28;20080;-68
2023/11/25 00:48:12;;;;;;;7.28;2.35;;;;;;;13.41;59.01;92266.16;4167024;28;20059;-68
2023/11/25 00:50:16;;;;;;;10.40;2.60;;;;;;;13.38;59.12;92262.16;4182174;28;20455;-68
2023/11/25 00:52:18;;;;;;;;;;;;;;;13.37;59.30;92265.03;4190003;28;20045;-67
2023/11/25 00:54:20;;;;;;;7.13;2.20;;;;;;;13.29;59.41;92263.56;4197325;28;19954;-69
2023/11/25 00:56:22;;;;;;;8.75;3.00;;;;;;;13.34;59.49;92262.88;4194536;28;20562;-68
2023/11/25 00:58:23;;;;;;;5.82;2.22;;;;;;;13.32;59.73;92257.84;4187066;28;20075;-67
2023/11/25 01:00:26;;;;;;;9.80;2.42;;;;;;;13.33;61.25;92254.16;4196190;28;20044;-68
2023/11/25 01:02:28;;;;;;;6.22;2.20;;;;;;;13.24;61.88;92243.22;4195285;28;20087;-68
2023/11/25 01:04:30;;;;;;;8.35;2.45;;;;;;;13.23;61.56;92244.25;4197228;28;20053;-67
2023/11/25 01:06:32;;;;;;;6.22;2.40;;;;;;;13.17;62.16;92245.19;4197195;28;20131;-68
2023/11/25 01:08:34;;;;;;;8.40;2.05;;;;;;;13.15;61.79;92254.34;4197284;28;20139;-68
2023/11/25 01:10:36;;;;;;;8.25;1.98;;;;;;;13.11;61.88;92251.38;4195531;28;20056;-67
2023/11/25 01:12:38;;;;;;;6.80;3.13;;;;;;;13.09;62.84;92241.09;4195206;28;20118;-67
2023/11/25 01:14:40;;;;;;;8.88;2.08;;;;;;;13.04;63.14;92237.59;4194093;28;20494;-66
2023/11/25 01:16:41;;;;;;;9.77;2.50;;;;;;;12.96;64.27;92230.84;4194835;28;20060;-67
2023/11/25 01:18:43;;;;;;;5.82;2.25;;;;;;;13.00;63.57;92232.00;4196538;28;20067;-66
2023/11/25 01:20:45;;;;;;;6.78;1.92;;;;;;;12.90;63.47;92229.16;4196177;28;20411;-68
2023/11/25 01:22:47;;;;;;;5.72;1.73;;;;;;;12.88;62.96;92221.53;4172432;28;20064;-68
2023/11/25 01:24:51;;;;;;;5.05;1.92;;;;;;;12.94;63.01;92211.09;4192578;28;20056;-67
2023/11/25 01:26:53;;;;;;;3.43;1.90;;;;;;;12.97;63.38;92219.31;4195000;28;20055;-65
2023/11/25 01:28:54;;;;;;;4.80;2.03;;;;;;;12.91;64.22;92228.94;4195297;28;20048;-67
2023/11/25 01:30:56;;;;;;;5.03;2.22;;;;;;;12.85;64.21;92223.81;4190182;28;20052;-68
2023/11/25 01:32:58;;;;;;;4.88;1.90;;;;;;;12.84;63.38;92225.66;4195151;28;20415;-68
2023/11/25 01:35:00;;;;;;;4.13;1.52;;;;;;;12.76;63.79;92233.09;4191806;28;20055;-66
2023/11/25 01:37:03;;;;;;;3.08;1.60;;;;;;;12.85;63.00;92229.06;4189810;28;20147;-67
2023/11/25 01:39:08;;;;;;;4.75;1.40;;;;;;;12.89;62.35;92222.31;4195991;28;20064;-67
2023/11/25 01:41:10;;;;;;;5.88;1.60;;;;;;;12.90;63.27;92223.91;4189142;28;20503;-66
2023/11/25 01:43:14;;;;;;;6.10;1.80;;;;;;;12.81;65.30;92236.59;4191598;28;20109;-68
2023/11/25 01:45:17;;;;;;;7.22;2.17;;;;;;;12.36;65.58;92228.59;4194474;28;20052;-67
2023/11/25 01:47:19;;;;;;;4.60;1.40;;;;;;;12.38;65.92;92222.09;4194286;28;20079;-67
2023/11/25 01:49:21;;;;;;;5.43;3.05;;;;;;;11.97;67.33;92223.03;4196274;28;20056;-68
2023/11/25 01:51:25;;;;;;;7.97;4.15;;;;;;;11.53;69.49;92209.38;4191650;28;20119;-67
2023/11/25 01:53:28;;;;;;;9.38;4.10;;;;;;;11.09;71.77;92220.09;4196439;28;20041;-68
2023/11/25 01:55:32;;;;;;;12.13;4.10;;;;;;;11.05;72.73;92213.69;4191256;28;20053;-68
2023/11/25 01:57:34;;;;;;;;;;;;;;;10.60;74.00;92190.50;4183907;28;20087;-67
2023/11/25 01:59:39;;;;;;;16.20;4.60;;;;;;;10.37;75.88;92214.75;4182747;28;19920;-66
2023/11/25 02:01:43;;;;;;;10.93;5.78;;;;;;;10.31;76.73;92213.00;4188503;28;20062;-68
2023/11/25 02:03:45;;;;;;;8.25;5.18;;;;;;;10.34;76.64;92202.88;4204406;28;20044;-68
2023/11/25 02:05:47;;;;;;;6.45;4.07;;;;;;;9.90;78.24;92193.47;4183513;28;20051;-68
2023/11/25 02:07:49;;;;;;;6.97;4.40;;;;;;;9.71;79.53;92201.28;4185399;28;20135;-68
2023/11/25 02:09:51;;;;;;;6.82;4.03;;;;;;;9.70;80.03;92206.72;4191646;28;20076;-68
2023/11/25 02:11:57;;;;;;;5.47;3.35;;;;;;;9.67;79.84;92194.09;4194173;28;20044;-68
2023/11/25 02:13:58;;;;;;;5.68;2.90;;;;;;;9.34;81.05;92193.34;4185458;28;20051;-68
2023/11/25 02:16:01;;;;;;;4.20;2.75;;;;;;;9.09;82.42;92190.69;4193744;28;20052;-67
2023/11/25 02:18:03;;;;;;;7.88;3.67;;;;;;;8.90;82.86;92181.19;4188706;28;20406;-67
2023/11/25 02:20:08;;;;;;;5.07;2.70;;;;;;;8.72;83.45;92202.78;4190198;28;20041;-68
2023/11/25 02:22:10;;;;;;;7.97;2.97;;;;;;;8.49;84.10;92185.81;4184378;28;20059;-67
2023/11/25 02:24:12;;;;;;;7.57;2.78;;;;;;;8.45;85.17;92202.09;4183450;28;20047;-68
2023/11/25 02:26:14;;;;;;;2.72;1.80;;;;;;;8.41;84.11;92214.78;4189500;28;20467;-68
2023/11/25 02:28:16;;;;;;;2.65;1.92;;;;;;;8.14;85.37;92229.66;4194506;28;20048;-67
2023/11/25 02:30:19;;;;;;;3.95;1.90;;;;;;;8.08;85.59;92210.41;4192018;28;20044;-68
2023/11/25 02:32:21;;;;;;;5.80;2.50;;;;;;;7.89;87.12;92198.22;4194861;28;20064;-70
2023/11/25 02:34:24;;;;;;;4.85;2.15;;;;;;;7.94;86.43;92216.69;4175724;28;20049;-68
2023/11/25 02:36:26;;;;;;;5.87;2.77;;;;;;;7.94;87.68;92203.66;4191594;28;20098;-68
2023/11/25 02:38:28;;;;;;;5.25;2.80;;;;;;;8.07;86.87;92221.84;4177201;28;20376;-67
2023/11/25 02:40:30;;;;;;;4.47;1.90;;;;;;;7.89;87.10;92221.69;4186081;28;20044;-68
2023/11/25 02:42:32;;;;;;;4.97;1.90;;;;;;;7.95;86.87;92232.09;4194614;28;20048;-67
2023/11/25 02:44:34;;;;;;;2.05;1.35;;;;;;;7.73;86.56;92220.31;4191369;28;20634;-69
2023/11/25 02:46:36;;;;;;;3.42;1.90;;;;;;;7.67;86.40;92218.50;4177407;28;20114;-68
2023/11/25 02:48:37;;;;;;;2.50;1.52;;;;;;;7.59;87.44;92222.13;4184780;28;20448;-68
2023/11/25 02:50:39;;;;;;;4.68;1.77;;;;;;;7.55;87.07;92211.31;4192963;28;20052;-68
2023/11/25 02:52:41;;;;;;;2.10;1.50;;;;;;;7.64;87.51;92217.13;4194573;28;20483;-67
2023/11/25 02:54:44;;;;;;;4.47;2.05;;;;;;;7.56;87.77;92214.72;4189889;28;20241;-69
2023/11/25 02:56:46;;;;;;;3.20;1.80;;;;;;;7.59;87.73;92222.94;4191299;28;20053;-69
2023/11/25 02:58:48;;;;;;;2.20;1.50;;;;;;;7.66;87.43;92237.75;4192335;28;20055;-68
2023/11/25 03:00:52;;;;;;;1.90;1.40;;;;;;;7.87;87.49;92229.72;4182158;28;20052;-68
2023/11/25 03:03:07;;;;;;;2.85;1.42;;;;;;;7.95;86.64;92232.09;4199415;28;20052;-68
2023/11/25 03:05:10;;;;;;;2.17;1.25;;;;;;;8.05;85.61;92241.31;4189796;28;20044;-69
2023/11/25 03:07:13;;;;;;;2.30;1.38;;;;;;;8.21;86.14;92231.22;4190399;28;20128;-69
2023/11/25 03:09:15;;;;;;;2.60;1.20;;;;;;;8.00;82.77;92242.72;4167524;28;20045;-70
2023/11/25 03:11:20;;;;;;;2.03;1.10;;;;;;;8.02;83.50;92245.13;4176680;28;20140;-68
2023/11/25 03:13:22;;;;;;;3.28;1.38;;;;;;;7.84;84.31;92240.53;4179936;28;20049;-67
2023/11/25 03:15:24;;;;;;;2.65;1.10;;;;;;;7.93;83.71;92239.31;4180988;28;20106;-68
2023/11/25 03:17:28;;;;;;;1.95;0.90;;;;;;;7.94;83.30;92240.94;4188238;28;20517;-67
2023/11/25 03:19:30;;;;;;;3.55;1.52;;;;;;;8.08;83.50;92240.91;4194909;28;20098;-67
2023/11/25 03:21:31;;;;;;;4.00;1.50;;;;;;;8.09;82.89;92237.31;4176516;28;20137;-67
2023/11/25 03:23:33;;;;;;;4.07;1.10;;;;;;;8.21;82.81;92239.06;4194931;28;20041;-67
2023/11/25 03:25:38;;;;;;;3.13;1.23;;;;;;;8.30;82.63;92242.25;4187200;28;20087;-70
2023/11/25 03:27:41;;;;;;;;;;;;;;;8.42;82.34;92237.22;4187010;28;20052;-67
2023/11/25 03:29:43;;;;;;;3.35;1.00;;;;;;;8.45;81.90;92226.38;4192751;28;19951;-66
2023/11/25 03:31:45;;;;;;;1.77;0.95;;;;;;;8.24;80.26;92222.22;4189312;28;20521;-69
2023/11/25 03:33:46;;;;;;;2.13;1.10;;;;;;;8.33;81.28;92238.44;4187295;28;20630;-68
2023/11/25 03:35:48;;;;;;;3.67;1.20;;;;;;;8.38;81.06;92241.22;4195730;28;20041;-70
2023/11/25 03:37:50;;;;;;;1.98;0.98;;;;;;;8.46;80.60;92233.19;4187253;28;20049;-68
2023/11/25 03:39:52;;;;;;;1.52;0.75;;;;;;;8.52;80.25;92221.16;4179453;28;20521;-68
2023/11/25 03:41:54;;;;;;;3.72;1.10;;;;;;;8.55;79.45;92237.16;4187947;28;20053;-67
2023/11/25 03:43:56;;;;;;;1.40;0.82;;;;;;;8.51;78.46;92230.75;4171926;28;20068;-68
2023/11/25 03:45:57;;;;;;;1.27;0.68;;;;;;;8.28;78.00;92241.66;4193688;28;20128;-67
2023/11/25 03:47:59;;;;;;;1.17;0.65;;;;;;;8.20;78.96;92240.06;4172847;28;20044;-67
2023/11/25 03:50:02;;;;;;;2.45;0.75;;;;;;;7.88;78.90;92226.09;4186812;28;20068;-70
2023/11/25 03:52:05;;;;;;;2.00;0.80;;;;;;;7.94;80.24;92234.94;4192390;28;20193;-68
2023/11/25 03:54:08;;;;;;;1.00;0.68;;;;;;;7.92;80.45;92244.75;4192079;28;20036;-67
2023/11/25 03:56:11;;;;;;;2.67;0.90;;;;;;;7.82;79.88;92228.72;4174648;28;20053;-67
2023/11/25 03:58:13;;;;;;;1.42;0.80;;;;;;;7.81;79.83;92222.72;4192850;28;20040;-68
2023/11/25 04:00:15;;;;;;;2.05;1.00;;;;;;;7.80;80.40;92215.88;4177355;28;20041;-66
2023/11/25 04:02:17;;;;;;;2.00;1.00;;;;;;;7.68;79.95;92226.13;4181554;28;20561;-67
2023/11/25 04:04:19;;;;;;;1.67;1.05;;;;;;;7.70;80.34;92239.75;4201953;28;20052;-68
2023/11/25 04:06:22;;;;;;;1.83;0.98;;;;;;;7.79;81.46;92232.53;4197424;28;20102;-68
2023/11/25 04:08:24;;;;;;;2.83;1.23;;;;;;;7.77;79.89;92208.47;4198554;28;20063;-67
2023/11/25 04:10:27;;;;;;;3.33;1.10;;;;;;;7.72;80.23;92222.13;4195517;28;20098;-70
2023/11/25 04:12:29;;;;;;;1.23;0.77;;;;;;;7.69;79.92;92230.31;4187996;28;20055;-67
2023/11/25 04:14:31;;;;;;;1.55;0.95;;;;;;;7.70;80.43;92215.50;4180132;28;20041;-66
2023/11/25 04:16:32;;;;;;;1.45;0.82;;;;;;;7.33;80.30;92212.50;4195393;28;20160;-67
2023/11/25 04:18:37;;;;;;;2.30;1.00;;;;;;;7.42;81.04;92233.94;4192106;28;20056;-68
2023/11/25 04:20:39;;;;;;;1.50;0.90;;;;;;;7.59;81.13;92216.91;4182500;28;20506;-66
2023/11/25 04:22:45;;;;;;;1.40;0.80;;;;;;;7.57;79.92;92221.50;4164060;28;20045;-68
2023/11/25 04:24:47;;;;;;;1.98;1.00;;;;;;;7.61;79.85;92227.94;4198436;28;20698;-68
2023/11/25 04:26:49;;;;;;;2.95;1.00;;;;;;;7.54;78.86;92227.13;4196410;28;20499;-68
2023/11/25 04:28:51;;;;;;;3.72;1.00;;;;;;;7.53;79.54;92222.94;4196794;28;20052;-68
2023/11/25 04:30:53;;;;;;;1.85;0.93;;;;;;;7.48;79.60;92225.34;4197006;28;20442;-68
2023/11/25 04:32:55;;;;;;;1.25;0.80;;;;;;;7.12;79.27;92229.94;4197585;28;20055;-68
2023/11/25 04:34:56;;;;;;;1.88;0.88;;;;;;;7.22;80.54;92226.13;4194888;28;20059;-67
2023/11/25 04:36:58;;;;;;;1.67;0.98;;;;;;;7.18;80.18;92231.75;4196541;28;20048;-68
2023/11/25 04:39:00;;;;;;;2.10;0.90;;;;;;;7.13;79.73;92226.31;4180127;28;20060;-67
2023/11/25 04:41:02;;;;;;;2.40;1.05;;;;;;;7.20;80.24;92234.13;4178987;28;20049;-68
2023/11/25 04:43:04;;;;;;;2.05;1.20;;;;;;;7.29;79.82;92243.38;4186123;28;20084;-67
2023/11/25 04:45:15;;;;;;;1.50;0.73;;;;;;;7.30;80.00;92238.97;4176134;28;20095;-68
2023/11/25 04:47:17;;;;;;;1.45;0.80;;;;;;;7.25;78.80;92230.94;4193956;28;20056;-67
2023/11/25 04:49:21;;;;;;;1.73;0.73;;;;;;;7.30;78.40;92231.94;4179720;28;20056;-67
2023/11/25 04:51:24;;;;;;;0.88;0.57;;;;;;;7.12;77.51;92239.53;4196558;28;20490;-68
2023/11/25 04:53:26;;;;;;;1.58;0.60;;;;;;;7.13;78.02;92226.31;4195263;28;20123;-66
2023/11/25 04:55:28;;;;;;;1.40;0.80;;;;;;;7.11;78.15;92230.13;4179688;28;20622;-66
2023/11/25 04:57:30;;;;;;;1.02;0.63;;;;;;;7.14;77.90;92229.72;4195004;28;20057;-67
2023/11/25 04:59:34;;;;;;;1.33;0.68;;;;;;;7.05;77.56;92233.50;4187799;28;20088;-67
2023/11/25 05:01:35;;;;;;;1.20;0.70;;;;;;;7.03;77.23;92228.50;4184593;28;20058;-69
2023/11/25 05:03:38;;;;;;;2.08;0.65;;;;;;;6.83;76.96;92235.47;4195712;28;20075;-68
2023/11/25 05:05:40;;;;;;;1.17;0.70;;;;;;;6.65;77.23;92251.66;4182511;28;20499;-69
2023/11/25 05:07:42;;;;;;;1.23;0.75;;;;;;;6.61;78.57;92250.44;4183041;28;20052;-70
2023/11/25 05:09:44;;;;;;;1.77;0.80;;;;;;;6.58;77.62;92256.81;4185786;28;20127;-68
2023/11/25 05:11:46;;;;;;;1.35;0.80;;;;;;;6.53;77.63;92256.59;4191245;28;20053;-69
2023/11/25 05:13:48;;;;;;;1.30;0.80;;;;;;;6.41;77.49;92256.38;4181618;28;20048;-69
2023/11/25 05:15:50;;;;;;;1.40;0.85;;;;;;;6.36;77.59;92245.72;4178845;28;20052;-68
2023/11/25 05:17:54;;;;;;;2.03;0.73;;;;;;;6.20;77.67;92261.66;4195453;28;20056;-67
2023/11/25 05:19:56;;;;;;;2.42;1.00;;;;;;;5.99;77.94;92270.34;4177383;28;20131;-67
2023/11/25 05:21:58;;;;;;;1.38;0.98;;;;;;;5.85;78.23;92274.59;4193227;28;20135;-69
2023/11/25 05:24:00;;;;;;;1.27;0.80;;;;;;;5.59;78.15;92272.63;4196937;28;20112;-69
2023/11/25 05:26:02;;;;;;;0.88;0.65;;;;;;;5.42;79.66;92283.28;4168455;28;20554;-67
2023/11/25 05:28:04;;;;;;;1.60;0.90;;;;;;;5.11;79.97;92276.63;4191165;28;20538;-69
2023/11/25 05:30:07;;;;;;;1.67;1.00;;;;;;;5.08;79.65;92276.19;4194704;28;20044;-68
2023/11/25 05:32:09;;;;;;;1.35;0.80;;;;;;;4.55;80.90;92286.00;4187110;28;20483;-69
2023/11/25 05:34:12;;;;;;;1.55;1.00;;;;;;;4.75;81.82;92287.03;4179362;28;20416;-69
2023/11/25 05:36:14;;;;;;;1.23;0.77;;;;;;;4.79;81.08;92287.47;4196792;28;20052;-68
2023/11/25 05:38:19;;;;;;;2.75;0.80;;;;;;;4.82;80.60;92294.88;4190887;28;20041;-68
2023/11/25 05:40:21;;;;;;;1.85;1.00;;;;;;;4.98;80.25;92307.63;4190657;28;20053;-68
2023/11/25 05:42:27;;;;;;;2.20;1.45;;;;;;;5.02;79.59;92297.69;4195810;28;20074;-67
2023/11/25 05:44:29;;;;;;;1.17;0.82;;;;;;;4.88;78.64;92307.09;4176021;28;20037;-69
2023/11/25 05:46:31;;;;;;;1.88;1.20;;;;;;;4.72;78.89;92315.94;4196614;28;20075;-69
2023/11/25 05:48:33;;;;;;;2.33;1.10;;;;;;;4.58;79.17;92317.56;4194857;28;20131;-70
2023/11/25 05:50:36;;;;;;;1.58;1.00;;;;;;;4.69;78.81;92319.69;4196487;28;20510;-68
2023/11/25 05:52:40;;;;;;;1.70;0.90;;;;;;;4.55;78.63;92332.69;4195679;28;20044;-70
2023/11/25 05:54:43;;;;;;;1.65;0.88;;;;;;;4.58;78.00;92353.03;4196264;28;20479;-69
2023/11/25 05:56:45;;;;;;;1.23;0.80;;;;;;;4.50;77.97;92352.16;4193705;28;20131;-68
2023/11/25 05:58:47;;;;;;;1.38;0.77;;;;;;;4.17;78.67;92356.09;4196916;28;20052;-70
2023/11/25 06:00:49;;;;;;;1.52;0.80;;;;;;;4.12;79.19;92367.00;4196092;28;20078;-71
2023/11/25 06:02:54;;;;;;;1.08;0.77;;;;;;;3.98;78.31;92363.41;4199628;28;20090;-70
2023/11/25 06:04:56;;;;;;;1.13;0.70;;;;;;;3.99;78.39;92375.38;4195417;28;20054;-71
2023/11/25 06:07:01;;;;;;;1.58;1.00;;;;;;;4.09;78.36;92362.97;4196625;28;20045;-70
2023/11/25 06:09:05;;;;;;;1.70;1.00;;;;;;;4.17;78.34;92375.03;4178226;28;20073;-72
2023/11/25 06:11:07;;;;;;;2.03;1.05;;;;;;;4.19;78.43;92387.81;4195129;28;20052;-68
2023/11/25 06:13:08;;;;;;;2.05;1.05;;;;;;;4.29;77.55;92396.16;4195748;28;20052;-69
2023/11/25 06:15:11;;;;;;;2.08;0.98;;;;;;;4.30;76.96;92392.56;4195256;28;20076;-68
2023/11/25 06:17:13;;;;;;;1.60;1.00;;;;;;;4.28;77.18;92407.47;4195458;28;20044;-67
2023/11/25 06:19:17;;;;;;;1.77;0.90;;;;;;;4.22;76.76;92410.81;4194218;28;20410;-67
2023/11/25 06:21:19;;;;;;;1.70;1.00;;;;;;;4.08;76.90;92402.00;4171086;28;20050;-67
2023/11/25 06:23:22;;;;;;;1.30;0.70;;;;;;;3.93;77.14;92408.94;4177430;28;20076;-69
2023/11/25 06:25:24;;;;;;;1.98;1.08;;;;;;;3.93;77.14;92409.75;4195319;28;20055;-69
2023/11/25 06:27:25;;;;;;;1.80;0.95;;;;;;;3.92;77.49;92418.50;4192496;28;20087;-69
2023/11/25 06:29:27;;;;;;;1.70;1.00;;;;;;;3.98;77.51;92433.38;4192717;28;20052;-69
2023/11/25 06:31:29;;;;;;;2.22;1.38;;;;;;;3.97;76.67;92438.72;4194652;28;20075;-70
2023/11/25 06:33:31;;;;;;;3.05;1.20;;;;;;;3.94;77.16;92434.69;4183960;28;20059;-69
2023/11/25 06:35:37;;;;;;;2.20;1.50;;;;;;;3.86;77.04;92426.97;4195837;28;20044;-70
2023/11/25 06:37:40;;;;;;;2.70;1.42;;;;;;;3.86;76.92;92421.78;4189454;28;20139;-70
2023/11/25 06:39:43;;;;;;;2.10;1.25;;;;;;;4.00;77.08;92417.63;4172726;28;20045;-70
2023/11/25 06:41:48;;;;;;;2.83;1.40;;;;;;;4.08;76.58;92418.34;4177220;28;20483;-69
2023/11/25 06:43:50;;;;;;;2.55;1.30;;;;;;;4.05;76.51;92423.09;4195822;28;20056;-70
2023/11/25 06:45:53;;;;;;;2.30;1.23;;;;;;;4.05;76.74;92421.31;4195695;28;20076;-70
2023/11/25 06:47:55;;;;;;;2.13;1.20;;;;;;;4.07;76.26;92427.13;4188220;28;20056;-70
2023/11/25 06:49:57;;;;;;;1.70;1.08;;;;;;;4.05;76.90;92420.50;4190187;28;20482;-72
2023/11/25 06:51:59;;;;;;;2.28;1.20;;;;;;;4.13;76.52;92422.22;4195343;28;20099;-70
2023/11/25 06:54:01;;;;;;;2.35;1.50;;;;;;;4.19;76.40;92424.91;4191611;28;20037;-71
2023/11/25 06:56:03;;;;;;;3.15;1.50;;;;;;;4.30;76.41;92421.06;4182821;28;20140;-70
2023/11/25 06:58:04;;;;;;;2.45;1.40;;;;;;;4.39;75.43;92421.78;4191378;28;20512;-71
2023/11/25 07:00:09;;;;;;;3.63;1.33;;;;;;;4.39;76.00;92433.00;4178100;28;20044;-71
2023/11/25 07:02:12;;;;;;;2.65;1.58;;;;;;;4.42;75.31;92437.81;4176756;28;20091;-72
2023/11/25 07:04:14;;;;;;;2.67;1.40;;;;;;;4.42;75.21;92437.00;4199594;28;20094;-70
2023/11/25 07:06:17;;;;;;;2.22;1.15;;;;;;;4.37;74.98;92418.59;4195045;28;20053;-72
2023/11/25 07:08:19;;;;;;;;;;;;;;;4.33;75.62;92432.91;4176042;28;20566;-69
2023/11/25 07:10:21;;;;;;;2.03;1.33;;;;;;;4.38;75.09;92440.94;4187683;28;20267;-69
2023/11/25 07:12:23;;;;;;;2.33;1.30;;;;;;;4.50;75.22;92440.31;4195561;28;20051;-69
2023/11/25 07:14:25;;;;;;;2.28;1.35;;;;;;;4.62;75.11;92434.69;4194938;28;20052;-70
2023/11/25 07:16:27;;;;;;;2.45;1.38;;;;;;;4.68;74.61;92434.78;4194478;28;20052;-69
2023/11/25 07:18:29;;;;;;;2.40;1.63;;;;;;;4.76;74.83;92433.91;4195564;28;20049;-70
2023/11/25 07:20:32;;;;;;;2.55;1.40;;;;;;;4.81;74.51;92431.56;4179173;28;20119;-70
2023/11/25 07:22:34;;;;;;;2.25;1.50;;;;;;;4.87;74.43;92415.28;4170745;28;20053;-69
2023/11/25 07:24:39;;;;;;;1.90;1.27;;;;;;;4.88;74.01;92411.72;4190663;28;20048;-69
2023/11/25 07:26:42;;;;;;;2.42;1.50;;;;;;;4.84;73.92;92402.69;4164947;28;20049;-70
2023/11/25 07:28:44;;;;;;;3.47;1.55;;;;;;;4.81;73.94;92413.41;4190613;28;20464;-69
2023/11/25 07:30:47;;;;;;;2.10;1.30;;;;;;;4.79;73.84;92404.19;4191038;28;20059;-72
2023/11/25 07:32:49;;;;;;;2.70;1.60;;;;;;;4.82;74.14;92409.00;4195683;28;20446;-69
2023/11/25 07:34:51;;;;;;;3.97;1.38;;;;;;;4.85;74.67;92406.88;4191810;28;20407;-70
2023/11/25 07:36:53;;;;;;;3.30;1.60;;;;;;;4.86;74.06;92411.09;4196713;28;20052;-71
2023/11/25 07:38:55;;;;;;;3.17;2.20;;;;;;;4.82;73.59;92406.41;4191473;28;20060;-71
2023/11/25 07:40:57;;;;;;;2.35;1.80;;;;;;;4.81;74.10;92405.63;4190132;28;20056;-69
2023/11/25 07:42:59;;;;;;;5.70;2.60;;;;;;;4.72;73.73;92409.28;4192782;28;20051;-71
2023/11/25 07:45:00;;;;;;;5.35;2.92;;;;;;;4.76;74.07;92410.56;4181474;28;20466;-71
2023/11/25 07:47:02;;;;;;;4.18;3.25;;;;;;;4.78;74.62;92402.59;4177848;28;20064;-70
2023/11/25 07:49:05;;;;;;;7.45;3.67;;;;;;;4.76;73.86;92400.16;4187612;28;20052;-71
2023/11/25 07:51:07;;;;;;;5.88;3.95;;;;;;;4.72;74.10;92396.31;4199110;28;20140;-70
2023/11/25 07:53:10;;;;;;;4.70;3.75;;;;;;;4.70;74.43;92395.69;4197759;28;20044;-69
2023/11/25 07:55:12;;;;;;;4.93;3.42;;;;;;;4.64;74.25;92389.44;4197174;28;20049;-72
2023/11/25 07:57:13;;;;;;;5.00;3.63;;;;;;;4.66;74.47;92391.84;4192103;28;20053;-70
2023/11/25 07:59:15;;;;;;;4.70;3.33;;;;;;;4.67;74.00;92391.69;4175111;28;20127;-70
2023/11/25 08:01:17;;;;;;;4.57;3.28;;;;;;;4.60;73.58;92395.97;4185857;28;20049;-69
2023/11/25 08:03:19;;;;;;;5.03;3.60;;;;;;;4.53;73.59;92397.66;4201086;28;20053;-70
2023/11/25 08:05:25;;;;;;;4.30;3.20;;;;;;;4.57;74.65;92393.75;4180616;28;20073;-69
2023/11/25 08:07:26;;;;;;;3.85;2.88;;;;;;;4.54;74.56;92399.28;4188304;28;20052;-70
2023/11/25 08:09:28;;;;;;;3.95;2.92;;;;;;;4.52;74.06;92393.47;4183840;28;20148;-69
2023/11/25 08:11:32;;;;;;;4.55;2.70;;;;;;;4.55;73.76;92389.72;4197375;28;20083;-69
2023/11/25 08:13:34;;;;;;;4.78;2.97;;;;;;;4.54;73.83;92396.69;4198495;28;20076;-69
2023/11/25 08:15:36;;;;;;;3.85;2.65;;;;;;;4.55;74.13;92397.50;4194940;28;20400;-70
2023/11/25 08:17:38;;;;;;;4.18;3.05;;;;;;;4.43;74.09;92392.78;4190896;28;20136;-70
2023/11/25 08:19:40;;;;;;;5.97;3.47;;;;;;;4.50;73.92;92398.84;4187370;28;20044;-68
2023/11/25 08:21:42;;;;;;;4.55;3.00;;;;;;;4.48;73.89;92400.81;4196413;28;20106;-69
2023/11/25 08:23:44;;;;;;;4.70;3.65;;;;;;;4.42;73.81;92398.13;4197278;28;20102;-70
2023/11/25 08:25:46;;;;;;;5.40;3.78;;;;;;;4.41;74.20;92399.09;4196618;28;20131;-70
2023/11/25 08:27:50;;;;;;;5.28;3.80;;;;;;;4.29;74.20;92396.16;4197290;28;20045;-69
2023/11/25 08:29:51;;;;;;;;;;;;;;;4.27;73.89;92403.28;4198440;28;20049;-69
2023/11/25 08:31:53;;;;;;;4.47;3.45;;;;;;;4.20;73.82;92392.03;4197206;28;20408;-68
2023/11/25 08:33:55;;;;;;;4.35;3.53;;;;;;;4.21;74.23;92398.81;4178836;28;20123;-71
2023/11/25 08:35:57;;;;;;;4.35;3.30;;;;;;;4.14;74.38;92403.09;4192922;28;20067;-69
2023/11/25 08:37:59;;;;;;;4.30;3.25;;;;;;;4.07;74.38;92398.63;4191030;28;20084;-70
2023/11/25 08:40:00;;;;;;;3.72;2.58;;;;;;;3.95;74.97;92407.78;4198188;28;20076;-70
2023/11/25 08:42:02;;;;;;;3.35;2.67;;;;;;;3.99;75.61;92403.06;4164673;28;20141;-68
2023/11/25 08:44:06;;;;;;;4.65;3.25;;;;;;;4.03;74.77;92407.72;4196949;28;20529;-69
2023/11/25 08:46:12;;;;;;;5.25;3.53;;;;;;;4.04;75.01;92406.75;4189741;28;20052;-71
2023/11/25 08:48:15;;;;;;;4.13;3.25;;;;;;;4.03;75.13;92406.94;4183349;28;20407;-66
2023/11/25 08:50:17;;;;;;;3.88;2.70;;;;;;;4.13;75.59;92410.06;4194506;28;20048;-70
2023/11/25 08:52:19;;;;;;;5.40;3.22;;;;;;;4.25;75.00;92402.66;4187039;28;20044;-70
2023/11/25 08:54:20;;;;;;;5.95;2.67;;;;;;;4.13;74.73;92402.31;4197243;28;20072;-69
2023/11/25 08:56:25;;;;;;;2.90;2.53;;;;;;;4.13;75.25;92402.31;4196867;28;20111;-71
2023/11/25 08:58:31;;;;;;;4.53;2.50;;;;;;;4.12;74.44;92402.47;4194733;28;20566;-69
2023/11/25 09:00:33;;;;;;;3.40;2.42;;;;;;;4.20;74.64;92394.63;4188385;28;20102;-69
2023/11/25 09:02:35;;;;;;;5.03;2.53;;;;;;;4.16;75.41;92396.75;4198153;28;20494;-71
2023/11/25 09:04:38;;;;;;;3.85;2.53;;;;;;;4.21;75.27;92397.03;4194396;28;20048;-71
2023/11/25 09:06:39;;;;;;;4.80;2.40;;;;;;;4.23;74.43;92397.66;4193932;28;20091;-69
2023/11/25 09:08:41;;;;;;;6.00;2.60;;;;;;;4.08;74.88;92392.44;4188582;28;20433;-69
2023/11/25 09:10:44;;;;;;;5.82;2.28;;;;;;;4.02;75.66;92390.59;4197354;28;20048;-71
2023/11/25 09:12:45;;;;;;;3.83;2.67;;;;;;;4.00;75.57;92391.72;4168401;28;20053;-71
2023/11/25 09:14:48;;;;;;;4.13;2.38;;;;;;;4.07;75.40;92383.06;4186546;28;20041;-70
2023/11/25 09:16:50;;;;;;;4.55;2.92;;;;;;;4.13;75.54;92385.94;4195039;28;20094;-71
2023/11/25 09:18:53;;;;;;;4.00;2.90;;;;;;;4.18;74.85;92386.22;4184315;28;20079;-69
2023/11/25 09:20:57;;;;;;;2.83;2.00;;;;;;;4.13;75.24;92386.75;4167879;28;20053;-69
2023/11/25 09:22:59;;;;;;;3.67;2.20;;;;;;;4.17;74.84;92387.19;4189795;28;20059;-70
2023/11/25 09:25:01;;;;;;;4.50;3.00;;;;;;;4.22;75.09;92390.88;4189209;28;20041;-70
2023/11/25 09:27:03;;;;;;;2.53;1.90;;;;;;;4.15;74.91;92392.56;4185502;28;20045;-70
2023/11/25 09:29:05;;;;;;;3.00;2.15;;;;;;;4.08;74.50;92397.63;4183758;28;20057;-69
2023/11/25 09:31:07;;;;;;;3.72;2.67;;;;;;;4.13;75.28;92399.72;4189689;28;20048;-70
2023/11/25 09:33:09;;;;;;;3.20;2.30;;;;;;;4.13;75.45;92391.13;4196872;28;20066;-71
2023/11/25 09:35:11;;;;;;;4.30;3.03;;;;;;;4.18;74.63;92387.03;4197341;28;20041;-71
2023/11/25 09:37:13;;;;;;;4.88;2.90;;;;;;;4.15;75.30;92384.78;4189464;28;20145;-71
2023/11/25 09:39:15;;;;;;;4.18;3.20;;;;;;;4.15;75.04;92386.56;4179839;28;20068;-71
2023/11/25 09:41:17;;;;;;;3.60;3.00;;;;;;;4.16;74.77;92377.81;4196462;28;20044;-72
2023/11/25 09:43:21;;;;;;;4.45;2.80;;;;;;;4.12;75.04;92369.59;4197681;28;20112;-71